createdAt,value
2022-09-28T00:01:18.965Z,99505.66
2022-09-28T00:03:42.223Z,99506.09
2022-09-28T00:06:07.897Z,99502.00
2022-09-28T00:08:31.144Z,99504.91
2022-09-28T00:10:56.637Z,99505.75
2022-09-28T00:13:19.959Z,99509.72
2022-09-28T00:15:43.147Z,99494.75
2022-09-28T00:18:06.523Z,99489.91
2022-09-28T00:20:29.785Z,99495.13
2022-09-28T00:22:54.399Z,99510.94
2022-09-28T00:25:17.875Z,99502.72
2022-09-28T00:27:41.362Z,99499.47
2022-09-28T00:30:05.105Z,99509.78
2022-09-28T00:32:28.641Z,99521.66
2022-09-28T00:34:52.003Z,99515.06
2022-09-28T00:37:15.256Z,99524.63
2022-09-28T00:39:41.374Z,99516.94
2022-09-28T00:42:05.690Z,99512.50
2022-09-28T00:44:50.164Z,99521.97
2022-09-28T00:47:37.433Z,99527.69
2022-09-28T00:50:02.205Z,99527.31
2022-09-28T00:52:27.822Z,99517.47
2022-09-28T00:54:52.407Z,99531.19
2022-09-28T00:57:15.353Z,99530.19
2022-09-28T00:59:38.633Z,99537.84
2022-09-28T01:02:02.040Z,99530.66
2022-09-28T01:04:29.756Z,99537.94
2022-09-28T01:06:53.326Z,99530.53
2022-09-28T01:09:16.623Z,99537.56
2022-09-28T01:11:42.367Z,99539.00
2022-09-28T01:14:06.836Z,99537.47
2022-09-28T01:16:34.186Z,99534.47
2022-09-28T01:19:15.441Z,99540.75
2022-09-28T01:21:42.049Z,99536.38
2022-09-28T01:24:15.231Z,99524.25
2022-09-28T01:26:45.115Z,99521.16
2022-09-28T01:29:14.664Z,99530.44
2022-09-28T01:31:38.546Z,99532.56
2022-09-28T01:34:05.476Z,99530.19
2022-09-28T01:36:29.301Z,99531.50
2022-09-28T01:38:53.812Z,99532.50
2022-09-28T01:41:17.852Z,99525.91
2022-09-28T01:43:44.339Z,99532.50
2022-09-28T01:46:09.427Z,99533.41
2022-09-28T01:48:34.642Z,99522.81
2022-09-28T01:50:59.383Z,99522.34
2022-09-28T01:53:23.692Z,99511.47
2022-09-28T01:55:49.366Z,99526.16
2022-09-28T01:58:14.986Z,99530.31
2022-09-28T02:00:41.572Z,99524.00
2022-09-28T02:03:07.383Z,99529.38
2022-09-28T02:05:40.263Z,99521.16
2022-09-28T02:08:04.484Z,99516.69
2022-09-28T02:10:30.092Z,99500.16
2022-09-28T02:12:54.587Z,99512.84
2022-09-28T02:15:20.253Z,99492.22
2022-09-28T02:17:44.862Z,99510.22
2022-09-28T02:20:10.100Z,99502.44
2022-09-28T02:22:34.975Z,99506.00
2022-09-28T02:24:59.712Z,99509.94
2022-09-28T02:27:30.763Z,99508.72
2022-09-28T02:29:54.049Z,99517.34
2022-09-28T02:32:17.314Z,99525.63
2022-09-28T02:34:41.861Z,99521.56
2022-09-28T02:37:05.133Z,99522.81
2022-09-28T02:39:28.279Z,99529.13
2022-09-28T02:41:56.317Z,99526.47
2022-09-28T02:44:30.999Z,99506.81
2022-09-28T02:46:56.794Z,99528.69
2022-09-28T02:49:28.147Z,99520.53
2022-09-28T02:52:03.199Z,99528.53
2022-09-28T02:54:50.464Z,99527.00
2022-09-28T02:57:19.673Z,99528.59
2022-09-28T02:59:51.620Z,99534.75
2022-09-28T03:02:20.904Z,99536.72
2022-09-28T03:04:46.239Z,99539.25
2022-09-28T03:07:18.985Z,99539.69
2022-09-28T03:09:44.473Z,99537.13
2022-09-28T03:12:09.982Z,99526.31
2022-09-28T03:14:33.191Z,99533.44
2022-09-28T03:16:56.567Z,99529.00
2022-09-28T03:19:21.135Z,99528.41
2022-09-28T03:21:44.085Z,99540.09
2022-09-28T03:24:11.163Z,99534.50
2022-09-28T03:26:34.523Z,99538.09
2022-09-28T03:28:58.056Z,99543.69
2022-09-28T03:31:22.796Z,99545.81
2022-09-28T03:33:46.608Z,99543.84
2022-09-28T03:36:10.637Z,99545.53
2022-09-28T03:38:34.455Z,99544.56
2022-09-28T03:40:59.910Z,99551.16
2022-09-28T03:43:27.200Z,99554.91
2022-09-28T03:45:54.971Z,99555.09
2022-09-28T03:48:23.157Z,99551.94
2022-09-28T03:50:47.750Z,99558.00
2022-09-28T03:53:10.954Z,99554.19
2022-09-28T03:55:34.294Z,99555.28
2022-09-28T03:57:58.978Z,99550.34
2022-09-28T04:00:22.501Z,99551.94
2022-09-28T04:02:45.694Z,99548.63
2022-09-28T04:05:09.454Z,99556.13
2022-09-28T04:07:34.106Z,99554.56
2022-09-28T04:09:57.563Z,99553.91
2022-09-28T04:12:20.765Z,99550.06
2022-09-28T04:14:45.842Z,99547.25
2022-09-28T04:17:09.018Z,99542.34
2022-09-28T04:19:32.714Z,99544.63
2022-09-28T04:22:16.326Z,99540.13
2022-09-28T04:24:40.246Z,99550.53
2022-09-28T04:27:17.328Z,99556.28
2022-09-28T04:29:44.170Z,99558.38
2022-09-28T04:32:10.361Z,99552.50
2022-09-28T04:34:37.858Z,99555.63
2022-09-28T04:37:01.985Z,99565.50
2022-09-28T04:39:25.289Z,99569.25
2022-09-28T04:41:50.704Z,99578.63
2022-09-28T04:44:13.909Z,99580.72
2022-09-28T04:46:37.345Z,99582.81
2022-09-28T04:49:20.450Z,99572.56
2022-09-28T04:51:49.745Z,99580.91
2022-09-28T04:54:12.885Z,99583.66
2022-09-28T04:56:36.114Z,99586.25
2022-09-28T04:59:00.402Z,99585.19
2022-09-28T05:01:24.877Z,99588.84
2022-09-28T05:03:57.371Z,99597.72
2022-09-28T05:06:34.881Z,99591.28
2022-09-28T05:09:01.562Z,99595.84
2022-09-28T05:11:24.908Z,99597.88
2022-09-28T05:13:48.946Z,99604.59
2022-09-28T05:16:14.205Z,99613.88
2022-09-28T05:18:56.540Z,99606.09
2022-09-28T05:21:20.179Z,99610.38
2022-09-28T05:23:48.625Z,99614.72
2022-09-28T05:26:12.422Z,99607.81
2022-09-28T05:28:35.726Z,99615.31
2022-09-28T05:31:27.183Z,99614.97
2022-09-28T05:34:19.901Z,99624.38
2022-09-28T05:36:45.739Z,99628.88
2022-09-28T05:39:10.599Z,99628.44
2022-09-28T05:41:34.048Z,99635.28
2022-09-28T05:43:58.182Z,99642.25
2022-09-28T05:46:22.539Z,99639.28
2022-09-28T05:48:46.749Z,99644.38
2022-09-28T05:51:10.231Z,99647.28
2022-09-28T05:53:33.571Z,99640.38
2022-09-28T05:56:00.233Z,99644.13
2022-09-28T05:58:23.494Z,99644.22
2022-09-28T06:00:46.725Z,99656.63
2022-09-28T06:03:12.426Z,99645.38
2022-09-28T06:05:36.274Z,99640.72
2022-09-28T06:07:59.857Z,99639.75
2022-09-28T06:10:23.432Z,99646.56
2022-09-28T06:12:48.749Z,99640.25
2022-09-28T06:15:13.273Z,99645.88
2022-09-28T06:17:36.483Z,99646.44
2022-09-28T06:20:36.690Z,99646.50
2022-09-28T06:23:13.833Z,99649.13
2022-09-28T06:25:37.103Z,99657.16
2022-09-28T06:28:02.778Z,99653.88
2022-09-28T06:30:27.242Z,99652.63
2022-09-28T06:32:53.744Z,99654.00
2022-09-28T06:35:17.131Z,99661.72
2022-09-28T06:37:40.352Z,99661.13
2022-09-28T06:40:03.777Z,99665.16
2022-09-28T06:42:27.299Z,99663.56
2022-09-28T06:45:11.377Z,99657.25
2022-09-28T06:48:00.875Z,99656.94
2022-09-28T06:50:32.606Z,99652.25
2022-09-28T06:53:09.450Z,99655.47
2022-09-28T06:55:49.123Z,99654.47
2022-09-28T06:58:14.779Z,99660.69
2022-09-28T07:00:39.699Z,99664.03
2022-09-28T07:03:04.212Z,99658.66
2022-09-28T07:05:48.423Z,99651.63
2022-09-28T07:08:30.242Z,99669.91
2022-09-28T07:11:01.419Z,99657.69
2022-09-28T07:13:51.922Z,99661.03
2022-09-28T07:16:24.124Z,99660.91
2022-09-28T07:18:50.062Z,99665.13
2022-09-28T07:21:26.207Z,99673.28
2022-09-28T07:23:54.321Z,99657.44
2022-09-28T07:26:23.657Z,99658.97
2022-09-28T07:28:58.852Z,99666.25
2022-09-28T07:31:29.748Z,99664.25
2022-09-28T07:34:13.628Z,99655.91
2022-09-28T07:36:59.716Z,99658.94
2022-09-28T07:39:22.909Z,99662.16
2022-09-28T07:41:45.087Z,99659.47
2022-09-28T07:44:08.274Z,99662.69
2022-09-28T07:46:34.768Z,99661.72
2022-09-28T07:49:08.388Z,99657.31
2022-09-28T07:51:56.510Z,99651.66
2022-09-28T07:54:40.553Z,99654.03
2022-09-28T07:57:29.655Z,99649.38
2022-09-28T08:00:13.780Z,99663.47
2022-09-28T08:02:44.674Z,99646.81
2022-09-28T08:05:13.638Z,99655.41
2022-09-28T08:07:38.257Z,99648.06
2022-09-28T08:10:04.883Z,99641.56
2022-09-28T08:12:55.169Z,99638.41
2022-09-28T08:15:51.981Z,99633.88
2022-09-28T08:18:24.539Z,99643.63
2022-09-28T08:21:05.028Z,99636.09
2022-09-28T08:23:28.270Z,99640.28
2022-09-28T08:25:54.114Z,99636.44
2022-09-28T08:28:18.941Z,99636.13
2022-09-28T08:30:44.325Z,99629.75
2022-09-28T08:33:31.706Z,99627.78
2022-09-28T08:36:13.987Z,99628.47
2022-09-28T08:39:12.872Z,99635.50
2022-09-28T08:42:08.857Z,99646.91
2022-09-28T08:45:09.260Z,99641.53
2022-09-28T08:47:54.403Z,99644.06
2022-09-28T08:50:32.555Z,99654.63
2022-09-28T08:53:28.905Z,99640.50
2022-09-28T08:56:05.925Z,99648.28
2022-09-28T08:58:30.472Z,99637.38
2022-09-28T09:00:54.303Z,99640.91
2022-09-28T09:03:22.494Z,99634.19
2022-09-28T09:06:04.016Z,99640.59
2022-09-28T09:08:51.736Z,99636.06
2022-09-28T09:11:20.238Z,99639.44
2022-09-28T09:13:53.962Z,99632.22
2022-09-28T09:16:25.681Z,99642.81
2022-09-28T09:19:18.357Z,99646.34
2022-09-28T09:22:17.822Z,99642.94
2022-09-28T09:24:43.345Z,99642.63
2022-09-28T09:27:07.623Z,99647.00
2022-09-28T09:29:37.213Z,99647.00
2022-09-28T09:32:23.897Z,99634.59
2022-09-28T09:35:08.825Z,99633.06
2022-09-28T09:38:03.209Z,99640.78
2022-09-28T09:41:06.247Z,99639.94
2022-09-28T09:44:08.519Z,99641.63
2022-09-28T09:46:53.667Z,99642.47
2022-09-28T09:49:23.871Z,99635.44
2022-09-28T09:51:48.883Z,99632.75
2022-09-28T09:54:19.315Z,99641.63
2022-09-28T09:56:44.097Z,99641.63
2022-09-28T09:59:15.559Z,99650.34
2022-09-28T10:01:59.056Z,99647.31
2022-09-28T10:04:38.207Z,99655.88
2022-09-28T10:07:10.547Z,99646.84
2022-09-28T10:09:37.282Z,99646.66
2022-09-28T10:12:31.146Z,99651.06
2022-09-28T10:14:56.680Z,99649.53
2022-09-28T10:17:27.387Z,99645.31
2022-09-28T10:20:13.095Z,99647.81
2022-09-28T10:22:48.619Z,99639.63
2022-09-28T10:25:15.152Z,99637.09
2022-09-28T10:27:41.413Z,99639.25
2022-09-28T10:30:12.788Z,99643.00
2022-09-28T10:32:40.124Z,99646.34
2022-09-28T10:35:15.579Z,99643.66
2022-09-28T10:37:48.423Z,99651.72
2022-09-28T10:40:41.497Z,99639.97
2022-09-28T10:43:06.295Z,99630.25
2022-09-28T10:45:31.638Z,99624.69
2022-09-28T10:47:55.833Z,99622.22
2022-09-28T10:50:21.467Z,99621.06
2022-09-28T10:52:46.767Z,99620.22
2022-09-28T10:55:30.693Z,99627.13
2022-09-28T10:57:55.375Z,99624.44
2022-09-28T11:00:31.400Z,99621.75
2022-09-28T11:03:18.954Z,99621.75
2022-09-28T11:05:43.502Z,99618.19
2022-09-28T11:08:08.057Z,99632.31
2022-09-28T11:10:39.469Z,99616.53
2022-09-28T11:13:11.927Z,99620.22
2022-09-28T11:15:38.382Z,99610.16
2022-09-28T11:18:19.902Z,99620.88
2022-09-28T11:20:45.408Z,99601.94
2022-09-28T11:23:22.836Z,99611.53
2022-09-28T11:26:00.193Z,99608.16
2022-09-28T11:28:26.746Z,99598.25
2022-09-28T11:30:51.366Z,99599.13
2022-09-28T11:33:26.813Z,99605.34
2022-09-28T11:36:21.856Z,99602.47
2022-09-28T11:38:47.866Z,99593.59
2022-09-28T11:41:52.693Z,99597.94
2022-09-28T11:44:28.170Z,99593.13
2022-09-28T11:47:08.763Z,99593.78
2022-09-28T11:49:34.361Z,99596.31
2022-09-28T11:51:58.467Z,99601.00
2022-09-28T11:54:26.206Z,99593.78
2022-09-28T11:56:50.426Z,99592.78
2022-09-28T11:59:14.485Z,99590.25
2022-09-28T12:01:45.002Z,99598.31
2022-09-28T12:04:20.004Z,99605.09
2022-09-28T12:06:47.119Z,99593.19
2022-09-28T12:09:15.692Z,99591.00
2022-09-28T12:12:07.693Z,99592.03
2022-09-28T12:14:40.454Z,99591.34
2022-09-28T12:17:09.692Z,99584.78
2022-09-28T12:19:34.563Z,99588.16
2022-09-28T12:21:58.548Z,99596.38
2022-09-28T12:24:24.776Z,99596.38
2022-09-28T12:26:49.855Z,99595.38
2022-09-28T12:29:15.133Z,99589.66
2022-09-28T12:31:39.543Z,99593.84
2022-09-28T12:34:04.215Z,99609.97
2022-09-28T12:36:41.855Z,99611.00
2022-09-28T12:39:21.693Z,99611.16
2022-09-28T12:41:55.294Z,99610.66
2022-09-28T12:44:39.137Z,99612.19
2022-09-28T12:47:10.619Z,99606.66
2022-09-28T12:52:30.323Z,99599.13
2022-09-28T12:55:19.115Z,99602.97
2022-09-28T12:57:47.702Z,99585.19
2022-09-28T13:00:12.396Z,99593.75
2022-09-28T13:03:16.080Z,99596.09
2022-09-28T13:06:06.619Z,99589.22
2022-09-28T13:08:32.494Z,99601.81
2022-09-28T13:11:02.229Z,99600.16
2022-09-28T13:13:34.481Z,99599.47
2022-09-28T13:15:58.943Z,99595.94
2022-09-28T13:18:24.119Z,99598.81
2022-09-28T13:21:00.320Z,99601.50
2022-09-28T13:23:26.500Z,99614.25
2022-09-28T13:25:53.182Z,99616.09
2022-09-28T13:28:16.641Z,99613.56
2022-09-28T13:30:40.320Z,99623.31
2022-09-28T13:33:04.962Z,99624.16
2022-09-28T13:35:28.452Z,99620.63
2022-09-28T13:38:13.573Z,99621.47
2022-09-28T13:40:51.465Z,99633.22
2022-09-28T13:43:19.740Z,99626.84
2022-09-28T13:45:53.998Z,99615.25
2022-09-28T13:48:17.764Z,99619.44
2022-09-28T13:50:52.008Z,99621.28
2022-09-28T13:53:20.258Z,99628.34
2022-09-28T13:55:53.953Z,99632.72
2022-09-28T13:58:20.750Z,99632.88
2022-09-28T14:00:47.114Z,99636.75
2022-09-28T14:03:14.970Z,99637.59
2022-09-28T14:05:49.409Z,99638.75
2022-09-28T14:08:34.249Z,99636.25
2022-09-28T14:10:57.642Z,99638.94
2022-09-28T14:13:58.295Z,99644.31
2022-09-28T14:16:23.326Z,99646.28
2022-09-28T14:18:46.617Z,99646.28
2022-09-28T14:21:51.756Z,99648.16
2022-09-28T14:24:21.139Z,99651.31
2022-09-28T14:26:55.774Z,99656.69
2022-09-28T14:29:28.869Z,99660.22
2022-09-28T14:31:54.547Z,99656.03
2022-09-28T14:34:34.423Z,99657.03
2022-09-28T14:37:15.073Z,99656.34
2022-09-28T14:39:55.427Z,99666.41
2022-09-28T14:42:19.448Z,99669.28
2022-09-28T14:45:20.007Z,99664.91
2022-09-28T14:47:44.851Z,99669.78
2022-09-28T14:50:22.241Z,99670.75
2022-09-28T14:52:47.417Z,99671.78
2022-09-28T14:55:15.472Z,99673.94
2022-09-28T14:57:38.631Z,99673.75
2022-09-28T15:00:02.210Z,99682.00
2022-09-28T15:02:26.518Z,99673.44
2022-09-28T15:04:52.914Z,99685.53
2022-09-28T15:07:24.038Z,99678.63
2022-09-28T15:09:49.635Z,99687.50
2022-09-28T15:12:15.822Z,99686.69
2022-09-28T15:14:42.944Z,99703.63
2022-09-28T15:17:09.990Z,99690.69
2022-09-28T15:19:34.223Z,99709.00
2022-09-28T15:21:58.767Z,99700.94
2022-09-28T15:24:40.647Z,99708.00
2022-09-28T15:27:04.884Z,99709.00
2022-09-28T15:29:31.324Z,99717.91
2022-09-28T15:31:54.828Z,99716.22
2022-09-28T15:34:48.807Z,99720.59
2022-09-28T15:37:13.438Z,99725.28
2022-09-28T15:39:36.357Z,99727.13
2022-09-28T15:41:59.990Z,99719.53
2022-09-28T15:44:30.481Z,99719.19
2022-09-28T15:47:06.468Z,99728.47
2022-09-28T15:49:38.137Z,99734.81
2022-09-28T15:52:03.075Z,99729.44
2022-09-28T15:54:29.143Z,99734.81
2022-09-28T15:56:53.637Z,99730.47
2022-09-28T15:59:19.578Z,99731.47
2022-09-28T16:01:43.210Z,99737.16
2022-09-28T16:04:37.512Z,99735.13
2022-09-28T16:07:06.653Z,99728.94
2022-09-28T16:09:40.304Z,99732.44
2022-09-28T16:12:10.984Z,99734.31
2022-09-28T16:14:34.143Z,99736.97
2022-09-28T16:17:00.426Z,99738.84
2022-09-28T16:19:24.573Z,99737.16
2022-09-28T16:21:48.210Z,99753.28
2022-09-28T16:24:20.054Z,99737.47
2022-09-28T16:26:44.689Z,99745.03
2022-09-28T16:29:08.002Z,99736.16
2022-09-28T16:31:34.490Z,99740.31
2022-09-28T16:33:59.609Z,99737.09
2022-09-28T16:36:23.157Z,99746.84
2022-09-28T16:38:46.364Z,99747.38
2022-09-28T16:41:09.686Z,99751.53
2022-09-28T16:43:36.627Z,99755.66
2022-09-28T16:46:00.841Z,99760.72
2022-09-28T16:48:24.601Z,99751.53
2022-09-28T16:50:47.832Z,99755.06
2022-09-28T16:53:31.665Z,99759.03
2022-09-28T16:55:54.926Z,99759.88
2022-09-28T16:58:18.672Z,99763.56
2022-09-28T17:00:45.768Z,99770.41
2022-09-28T17:03:19.000Z,99766.19
2022-09-28T17:05:42.843Z,99775.63
2022-09-28T17:08:06.497Z,99768.88
2022-09-28T17:10:44.834Z,99774.56
2022-09-28T17:13:16.789Z,99777.63
2022-09-28T17:15:40.209Z,99779.16
2022-09-28T17:18:05.192Z,99779.97
2022-09-28T17:20:29.518Z,99778.84
2022-09-28T17:22:53.457Z,99780.50
2022-09-28T17:25:16.870Z,99783.34
2022-09-28T17:27:40.254Z,99788.38
2022-09-28T17:30:06.766Z,99791.38
2022-09-28T17:32:32.551Z,99801.06
2022-09-28T17:35:19.852Z,99788.84
2022-09-28T17:37:40.879Z,99794.41
2022-09-28T17:40:04.035Z,99797.94
2022-09-28T17:42:27.262Z,99796.88
2022-09-28T17:44:50.409Z,99794.97
2022-09-28T17:47:13.559Z,99799.56
2022-09-28T17:49:37.254Z,99802.56
2022-09-28T17:52:03.647Z,99803.84
2022-09-28T17:54:27.278Z,99803.41
2022-09-28T17:56:50.429Z,99808.25
2022-09-28T17:59:14.759Z,99809.22
2022-09-28T18:01:39.711Z,99805.56
2022-09-28T18:04:03.618Z,99813.22
2022-09-28T18:06:26.802Z,99818.91
2022-09-28T18:08:51.422Z,99822.63
2022-09-28T18:11:14.325Z,99829.22
2022-09-28T18:13:37.544Z,99820.88
2022-09-28T18:16:00.901Z,99823.56
2022-09-28T18:18:24.161Z,99817.13
2022-09-28T18:20:47.385Z,99823.34
2022-09-28T18:23:10.570Z,99822.03
2022-09-28T18:25:35.214Z,99823.56
2022-09-28T18:28:00.239Z,99819.66
2022-09-28T18:30:23.471Z,99823.97
2022-09-28T18:32:46.760Z,99817.84
2022-09-28T18:35:11.530Z,99808.97
2022-09-28T18:37:37.493Z,99812.03
2022-09-28T18:40:00.755Z,99804.97
2022-09-28T18:42:25.464Z,99809.28
2022-09-28T18:44:48.614Z,99801.91
2022-09-28T18:47:13.647Z,99805.44
2022-09-28T18:49:36.788Z,99806.28
2022-09-28T18:52:00.101Z,99803.97
2022-09-28T18:54:24.620Z,99803.28
2022-09-28T18:56:47.568Z,99799.84
2022-09-28T18:59:12.619Z,99801.31
2022-09-28T19:01:36.632Z,99795.44
2022-09-28T19:04:00.700Z,99794.97
2022-09-28T19:06:24.038Z,99797.50
2022-09-28T19:08:52.840Z,99799.47
2022-09-28T19:11:16.675Z,99800.97
2022-09-28T19:13:39.902Z,99799.78
2022-09-28T19:16:09.724Z,99805.13
2022-09-28T19:18:33.017Z,99806.22
2022-09-28T19:20:56.234Z,99799.09
2022-09-28T19:23:19.560Z,99798.28
2022-09-28T19:25:42.895Z,99791.81
2022-09-28T19:28:06.124Z,99796.69
2022-09-28T19:30:29.523Z,99802.66
2022-09-28T19:32:54.073Z,99810.09
2022-09-28T19:35:17.194Z,99804.56
2022-09-28T19:37:40.414Z,99806.09
2022-09-28T19:40:03.951Z,99811.16
2022-09-28T19:42:27.123Z,99808.28
2022-09-28T19:44:51.063Z,99812.50
2022-09-28T19:47:14.229Z,99819.53
2022-09-28T19:49:39.626Z,99811.97
2022-09-28T19:52:18.204Z,99814.03
2022-09-28T19:54:43.963Z,99818.47
2022-09-28T19:57:08.572Z,99810.63
2022-09-28T19:59:32.024Z,99812.88
2022-09-28T20:01:56.399Z,99812.56
2022-09-28T20:04:22.892Z,99806.97
2022-09-28T20:06:50.149Z,99814.72
2022-09-28T20:09:13.308Z,99812.06
2022-09-28T20:11:36.482Z,99817.50
2022-09-28T20:14:00.926Z,99809.75
2022-09-28T20:16:24.577Z,99810.38
2022-09-28T20:18:50.221Z,99817.41
2022-09-28T20:21:17.193Z,99816.16
2022-09-28T20:23:44.591Z,99821.59
2022-09-28T20:26:09.185Z,99823.13
2022-09-28T20:28:32.889Z,99825.50
2022-09-28T20:30:57.335Z,99815.03
2022-09-28T20:33:28.631Z,99815.50
2022-09-28T20:35:52.284Z,99810.75
2022-09-28T20:38:15.512Z,99813.34
2022-09-28T20:40:40.278Z,99822.78
2022-09-28T20:43:03.539Z,99811.72
2022-09-28T20:45:26.646Z,99817.88
2022-09-28T20:47:49.847Z,99815.88
2022-09-28T20:50:12.967Z,99826.94
2022-09-28T20:52:36.141Z,99817.56
2022-09-28T20:54:59.501Z,99813.97
2022-09-28T20:57:24.586Z,99820.88
2022-09-28T20:59:52.292Z,99820.66
2022-09-28T21:02:18.283Z,99821.88
2022-09-28T21:04:41.611Z,99824.91
2022-09-28T21:07:04.734Z,99818.94
2022-09-28T21:09:30.078Z,99824.13
2022-09-28T21:11:53.254Z,99828.53
2022-09-28T21:14:18.604Z,99825.53
2022-09-28T21:16:41.786Z,99830.38
2022-09-28T21:19:05.191Z,99829.84
2022-09-28T21:21:28.392Z,99835.22
2022-09-28T21:23:53.226Z,99843.47
2022-09-28T21:26:24.766Z,99842.16
2022-09-28T21:28:47.967Z,99848.72
2022-09-28T21:31:12.705Z,99853.47
2022-09-28T21:33:36.117Z,99851.31
2022-09-28T21:36:01.719Z,99856.84
2022-09-28T21:38:24.855Z,99858.34
2022-09-28T21:40:48.528Z,99859.47
2022-09-28T21:43:11.711Z,99850.28
2022-09-28T21:45:34.898Z,99848.06
2022-09-28T21:47:59.581Z,99847.59
2022-09-28T21:50:23.075Z,99842.94
2022-09-28T21:52:46.209Z,99837.22
2022-09-28T21:55:10.530Z,99843.13
2022-09-28T21:57:33.776Z,99841.72
2022-09-28T21:59:56.945Z,99842.88
2022-09-28T22:02:21.607Z,99839.53
2022-09-28T22:04:46.146Z,99835.75
2022-09-28T22:07:09.362Z,99835.78
2022-09-28T22:09:32.518Z,99833.56
2022-09-28T22:11:55.739Z,99821.19
2022-09-28T22:14:18.882Z,99827.75
2022-09-28T22:16:42.281Z,99825.16
2022-09-28T22:19:05.446Z,99828.44
2022-09-28T22:21:31.885Z,99832.06
2022-09-28T22:23:55.111Z,99828.75
2022-09-28T22:26:19.625Z,99786.31
2022-09-28T22:28:45.737Z,99835.31
2022-09-28T22:31:08.931Z,99843.22
2022-09-28T22:33:32.250Z,99836.72
2022-09-28T22:35:55.475Z,99837.25
2022-09-28T22:38:20.285Z,99832.63
2022-09-28T22:40:43.751Z,99833.88
2022-09-28T22:43:07.098Z,99830.09
2022-09-28T22:45:30.237Z,99824.44
2022-09-28T22:47:53.456Z,99822.16
2022-09-28T22:50:16.653Z,99821.63
2022-09-28T22:52:39.829Z,99815.06
2022-09-28T22:55:04.696Z,99812.22
2022-09-28T22:57:27.856Z,99813.59
2022-09-28T22:59:51.028Z,99806.63
2022-09-28T23:02:14.214Z,99812.69
2022-09-28T23:04:37.394Z,99811.03
2022-09-28T23:07:00.543Z,99816.06
2022-09-28T23:09:23.698Z,99808.13
2022-09-28T23:11:48.252Z,99806.31
2022-09-28T23:14:12.101Z,99807.53
2022-09-28T23:16:35.258Z,99809.84
2022-09-28T23:18:58.690Z,99811.19
2022-09-28T23:21:22.660Z,99806.94
2022-09-28T23:23:45.872Z,99817.25
2022-09-28T23:26:12.848Z,99815.03
2022-09-28T23:28:37.413Z,99817.78
2022-09-28T23:31:08.224Z,99805.53
2022-09-28T23:33:31.426Z,99809.34
2022-09-28T23:35:54.614Z,99813.16
2022-09-28T23:38:18.807Z,99804.13
2022-09-28T23:40:42.079Z,99804.94
2022-09-28T23:43:05.286Z,99809.13
2022-09-28T23:45:29.916Z,99798.63
2022-09-28T23:47:52.823Z,99799.38
2022-09-28T23:50:15.961Z,99798.00
2022-09-28T23:52:39.290Z,99795.09
2022-09-28T23:55:02.493Z,99797.09
2022-09-28T23:57:25.631Z,99797.63
2022-09-28T23:59:48.901Z,99794.03
